RYR5345 LIMJ-LICC
Flight info
| Callsign | RYR5345 |
|---|---|
| Flight time | 1h 20m |
| Altitude | 37000 |
| Route | UNITA DCT ELB DCT PODOX DCT LURON DCT BEKIV DCT ENEPA DCT LIBRO |
| Aircraft | B738/M-SDE2E3FGHIRWXY/LB1 |
Departure
| Time | 2026-04-26 18:41 |
|---|---|
| Airport | Genoa Cristoforo Colombo Airport (LIMJ) |
Arrival
| Time | 2026-04-26 20:01 |
|---|---|
| Airport | Catania-Fontanarossa Airport (LICC) |
| Time | Latitude | Longitude | Altitude | Speed | Heading |
|---|---|---|---|---|---|
| 2026-04-26 18:10 | 44.41418 | 8.85029 | 27 ft | 0 kts | 18° |
| 2026-04-26 18:11 | 44.41418 | 8.85028 | 27 ft | 0 kts | 18° |
| 2026-04-26 18:13 | 44.41418 | 8.85029 | 27 ft | 0 kts | 18° |
| 2026-04-26 18:25 | 44.41418 | 8.85028 | 27 ft | 0 kts | 18° |
| 2026-04-26 18:25 | 44.41414 | 8.85027 | 27 ft | 2 kts | 18° |
| 2026-04-26 18:25 | 44.41407 | 8.85023 | 27 ft | 0 kts | 17° |
| 2026-04-26 18:32 | 44.41403 | 8.85022 | 27 ft | 2 kts | 17° |
| 2026-04-26 18:33 | 44.41389 | 8.85016 | 26 ft | 2 kts | 18° |
| 2026-04-26 18:33 | 44.41375 | 8.85009 | 26 ft | 2 kts | 18° |
| 2026-04-26 18:33 | 44.41360 | 8.85003 | 26 ft | 2 kts | 21° |
| 2026-04-26 18:33 | 44.41349 | 8.84982 | 26 ft | 2 kts | 85° |
| 2026-04-26 18:34 | 44.41350 | 8.84969 | 26 ft | 1 kts | 110° |
| 2026-04-26 18:34 | 44.41351 | 8.84964 | 26 ft | 0 kts | 105° |
| 2026-04-26 18:35 | 44.41351 | 8.84965 | 26 ft | 0 kts | 105° |
| 2026-04-26 18:35 | 44.41345 | 8.84994 | 26 ft | 4 kts | 107° |
| 2026-04-26 18:36 | 44.41338 | 8.85026 | 26 ft | 0 kts | 101° |
| 2026-04-26 18:36 | 44.41334 | 8.85054 | 26 ft | 0 kts | 102° |
| 2026-04-26 18:36 | 44.41330 | 8.85078 | 26 ft | 7 kts | 103° |
| 2026-04-26 18:36 | 44.41309 | 8.85180 | 25 ft | 11 kts | 110° |
| 2026-04-26 18:37 | 44.41297 | 8.85222 | 24 ft | 1 kts | 126° |
| 2026-04-26 18:37 | 44.41285 | 8.85243 | 24 ft | 1 kts | 127° |
| 2026-04-26 18:37 | 44.41262 | 8.85271 | 24 ft | 0 kts | 156° |
| 2026-04-26 18:37 | 44.41251 | 8.85278 | 23 ft | 4 kts | 157° |
| 2026-04-26 18:38 | 44.41240 | 8.85280 | 23 ft | 3 kts | 181° |
| 2026-04-26 18:38 | 44.41229 | 8.85277 | 23 ft | 3 kts | 194° |
| 2026-04-26 18:38 | 44.41193 | 8.85264 | 23 ft | 6 kts | 195° |
| 2026-04-26 18:38 | 44.41169 | 8.85255 | 23 ft | 5 kts | 194° |
| 2026-04-26 18:39 | 44.41125 | 8.85240 | 23 ft | 9 kts | 194° |
| 2026-04-26 18:39 | 44.41059 | 8.85197 | 23 ft | 10 kts | 226° |
| 2026-04-26 18:39 | 44.41026 | 8.85121 | 23 ft | 8 kts | 255° |
| 2026-04-26 18:39 | 44.41027 | 8.85053 | 24 ft | 6 kts | 285° |
| 2026-04-26 18:40 | 44.41037 | 8.85003 | 24 ft | 4 kts | 285° |
| 2026-04-26 18:40 | 44.41050 | 8.84932 | 24 ft | 26 kts | 284° |
| 2026-04-26 18:40 | 44.41180 | 8.84256 | 19 ft | 115 kts | 285° |
| 2026-04-26 18:40 | 44.41456 | 8.82857 | 66 ft | 180 kts | 284° |
| 2026-04-26 18:41 | 44.41748 | 8.81134 | 985 ft | 186 kts | 274° |
| 2026-04-26 18:41 | 44.41477 | 8.79449 | 1799 ft | 193 kts | 233° |
| 2026-04-26 18:41 | 44.40364 | 8.78445 | 2534 ft | 200 kts | 189° |
| 2026-04-26 18:41 | 44.38972 | 8.78511 | 2991 ft | 206 kts | 164° |
| 2026-04-26 18:42 | 44.37730 | 8.79381 | 3018 ft | 207 kts | 146° |
| 2026-04-26 18:42 | 44.36586 | 8.80461 | 2998 ft | 202 kts | 149° |
| 2026-04-26 18:42 | 44.35380 | 8.81393 | 3098 ft | 205 kts | 158° |
| 2026-04-26 18:42 | 44.34042 | 8.82098 | 3549 ft | 216 kts | 161° |
| 2026-04-26 18:43 | 44.32585 | 8.82787 | 3969 ft | 231 kts | 161° |
| 2026-04-26 18:43 | 44.31153 | 8.83497 | 4348 ft | 234 kts | 160° |
| 2026-04-26 18:43 | 44.29655 | 8.84270 | 4761 ft | 236 kts | 159° |
| 2026-04-26 18:43 | 44.28083 | 8.85092 | 5514 ft | 245 kts | 159° |
| 2026-04-26 18:44 | 44.26552 | 8.85891 | 6533 ft | 243 kts | 158° |
| 2026-04-26 18:44 | 44.25023 | 8.86688 | 7362 ft | 248 kts | 158° |
| 2026-04-26 18:44 | 44.23415 | 8.87524 | 8245 ft | 251 kts | 158° |
| 2026-04-26 18:44 | 44.22326 | 8.88090 | 8827 ft | 253 kts | 158° |
| 2026-04-26 18:45 | 44.19994 | 8.89300 | 10001 ft | 259 kts | 158° |
| 2026-04-26 18:45 | 44.18318 | 8.90170 | 10808 ft | 263 kts | 158° |
| 2026-04-26 18:45 | 44.16602 | 8.91059 | 11526 ft | 271 kts | 158° |
| 2026-04-26 18:45 | 44.14786 | 8.92002 | 12034 ft | 287 kts | 158° |
| 2026-04-26 18:46 | 44.12887 | 8.92988 | 12521 ft | 303 kts | 158° |
| 2026-04-26 18:46 | 44.10851 | 8.94043 | 13019 ft | 318 kts | 159° |
| 2026-04-26 18:46 | 44.08709 | 8.95149 | 13468 ft | 334 kts | 159° |
| 2026-04-26 18:46 | 44.06534 | 8.96271 | 13902 ft | 350 kts | 159° |
| 2026-04-26 18:47 | 44.04246 | 8.97451 | 14103 ft | 362 kts | 159° |
| 2026-04-26 18:47 | 44.01899 | 8.98658 | 14123 ft | 357 kts | 159° |
| 2026-04-26 18:47 | 43.99599 | 8.99839 | 14127 ft | 356 kts | 159° |
| 2026-04-26 18:47 | 43.97240 | 9.01065 | 14285 ft | 375 kts | 158° |
| 2026-04-26 18:48 | 43.94817 | 9.02565 | 14698 ft | 389 kts | 152° |
| 2026-04-26 18:48 | 43.92499 | 9.04554 | 15114 ft | 403 kts | 144° |
| 2026-04-26 18:48 | 43.90263 | 9.06927 | 15778 ft | 409 kts | 140° |
| 2026-04-26 18:48 | 43.88106 | 9.09440 | 16464 ft | 414 kts | 139° |
| 2026-04-26 18:49 | 43.85986 | 9.11992 | 17137 ft | 418 kts | 139° |
| 2026-04-26 18:49 | 43.83818 | 9.14604 | 17775 ft | 424 kts | 139° |
| 2026-04-26 18:49 | 43.81633 | 9.17207 | 18442 ft | 428 kts | 140° |
| 2026-04-26 18:49 | 43.79449 | 9.19777 | 19136 ft | 431 kts | 140° |
| 2026-04-26 18:50 | 43.77151 | 9.22453 | 19806 ft | 435 kts | 140° |
| 2026-04-26 18:50 | 43.74835 | 9.25128 | 20492 ft | 439 kts | 140° |
| 2026-04-26 18:50 | 43.72505 | 9.27807 | 21147 ft | 443 kts | 141° |
| 2026-04-26 18:50 | 43.70286 | 9.30353 | 21744 ft | 446 kts | 141° |
| 2026-04-26 18:51 | 43.68102 | 9.32854 | 22330 ft | 449 kts | 141° |
| 2026-04-26 18:51 | 43.65841 | 9.35440 | 22903 ft | 453 kts | 141° |
| 2026-04-26 18:51 | 43.63526 | 9.38087 | 23470 ft | 457 kts | 141° |
| 2026-04-26 18:51 | 43.61286 | 9.40645 | 23984 ft | 461 kts | 141° |
| 2026-04-26 18:52 | 43.58982 | 9.43275 | 24547 ft | 464 kts | 141° |
| 2026-04-26 18:52 | 43.56598 | 9.45993 | 24950 ft | 471 kts | 141° |
| 2026-04-26 18:52 | 43.54178 | 9.48750 | 25378 ft | 477 kts | 141° |
| 2026-04-26 18:52 | 43.51724 | 9.51543 | 25908 ft | 481 kts | 141° |
| 2026-04-26 18:53 | 43.49347 | 9.54245 | 26389 ft | 484 kts | 141° |
| 2026-04-26 18:53 | 43.46944 | 9.56976 | 26877 ft | 488 kts | 141° |
| 2026-04-26 18:53 | 43.44402 | 9.59861 | 27342 ft | 492 kts | 141° |
| 2026-04-26 18:53 | 43.41734 | 9.62886 | 27852 ft | 495 kts | 141° |
| 2026-04-26 18:54 | 43.39082 | 9.65890 | 28319 ft | 499 kts | 141° |
| 2026-04-26 18:54 | 43.36451 | 9.68866 | 28795 ft | 501 kts | 141° |
| 2026-04-26 18:54 | 43.33807 | 9.71854 | 29763 ft | 492 kts | 141° |
| 2026-04-26 18:54 | 43.31215 | 9.74781 | 30589 ft | 487 kts | 141° |
| 2026-04-26 18:55 | 43.28635 | 9.77690 | 31124 ft | 487 kts | 141° |
| 2026-04-26 18:55 | 43.26002 | 9.80655 | 31693 ft | 486 kts | 141° |
| 2026-04-26 18:55 | 43.23424 | 9.83554 | 32223 ft | 486 kts | 141° |
| 2026-04-26 18:55 | 43.20887 | 9.86404 | 32728 ft | 485 kts | 141° |
| 2026-04-26 18:56 | 43.18315 | 9.89289 | 33321 ft | 483 kts | 141° |
| 2026-04-26 18:56 | 43.15736 | 9.92180 | 33485 ft | 489 kts | 141° |
| 2026-04-26 18:56 | 43.13114 | 9.95114 | 33902 ft | 489 kts | 141° |
| 2026-04-26 18:56 | 43.10508 | 9.98029 | 34371 ft | 488 kts | 141° |
| 2026-04-26 18:57 | 43.07828 | 10.01022 | 34796 ft | 487 kts | 141° |
| 2026-04-26 18:57 | 43.06094 | 10.02958 | 35055 ft | 486 kts | 141° |
| 2026-04-26 18:57 | 43.02619 | 10.06830 | 35494 ft | 486 kts | 141° |
| 2026-04-26 18:57 | 42.99987 | 10.09760 | 35791 ft | 486 kts | 141° |
| 2026-04-26 18:58 | 42.97407 | 10.12627 | 36078 ft | 486 kts | 142° |
| 2026-04-26 18:58 | 42.94749 | 10.15578 | 36124 ft | 487 kts | 142° |
| 2026-04-26 18:58 | 42.89462 | 10.21440 | 36125 ft | 476 kts | 142° |
| 2026-04-26 18:59 | 42.84146 | 10.27320 | 36127 ft | 479 kts | 142° |
| 2026-04-26 18:59 | 42.79013 | 10.32984 | 36126 ft | 478 kts | 141° |
| 2026-04-26 19:00 | 42.73944 | 10.38216 | 36128 ft | 478 kts | 148° |
| 2026-04-26 19:00 | 42.68048 | 10.41929 | 36126 ft | 475 kts | 162° |
| 2026-04-26 19:01 | 42.61797 | 10.44512 | 36120 ft | 473 kts | 165° |
| 2026-04-26 19:01 | 42.55468 | 10.46883 | 36126 ft | 473 kts | 166° |
| 2026-04-26 19:02 | 42.49116 | 10.49283 | 36122 ft | 473 kts | 165° |
| 2026-04-26 19:02 | 42.43842 | 10.51321 | 36125 ft | 474 kts | 165° |
| 2026-04-26 19:03 | 42.36387 | 10.54247 | 36126 ft | 474 kts | 165° |
| 2026-04-26 19:03 | 42.30154 | 10.56788 | 36127 ft | 474 kts | 162° |
| 2026-04-26 19:04 | 42.24301 | 10.60175 | 36123 ft | 474 kts | 153° |
| 2026-04-26 19:04 | 42.18578 | 10.64485 | 36126 ft | 475 kts | 150° |
| 2026-04-26 19:05 | 42.10071 | 10.71373 | 36126 ft | 475 kts | 150° |
| 2026-04-26 19:06 | 42.04423 | 10.75896 | 36132 ft | 475 kts | 150° |
| 2026-04-26 19:06 | 41.98684 | 10.80424 | 36132 ft | 475 kts | 151° |
| 2026-04-26 19:07 | 41.93067 | 10.84817 | 36131 ft | 475 kts | 151° |
| 2026-04-26 19:07 | 41.87453 | 10.89188 | 36131 ft | 475 kts | 151° |
| 2026-04-26 19:08 | 41.81822 | 10.93561 | 36130 ft | 474 kts | 151° |
| 2026-04-26 19:08 | 41.76282 | 10.97852 | 36130 ft | 474 kts | 151° |
| 2026-04-26 19:09 | 41.70772 | 11.02112 | 36128 ft | 475 kts | 151° |
| 2026-04-26 19:09 | 41.65277 | 11.06353 | 36133 ft | 475 kts | 151° |
| 2026-04-26 19:10 | 41.59707 | 11.10642 | 36132 ft | 474 kts | 151° |
| 2026-04-26 19:10 | 41.54174 | 11.14894 | 36134 ft | 474 kts | 151° |
| 2026-04-26 19:11 | 41.48643 | 11.19136 | 36131 ft | 473 kts | 151° |
| 2026-04-26 19:11 | 41.43066 | 11.23407 | 36132 ft | 473 kts | 151° |
| 2026-04-26 19:12 | 41.37505 | 11.27655 | 36130 ft | 474 kts | 151° |
| 2026-04-26 19:12 | 41.31961 | 11.31883 | 36130 ft | 474 kts | 151° |
| 2026-04-26 19:13 | 41.26381 | 11.36129 | 36131 ft | 474 kts | 151° |
| 2026-04-26 19:13 | 41.20783 | 11.40380 | 36136 ft | 474 kts | 151° |
| 2026-04-26 19:14 | 41.15180 | 11.44627 | 36144 ft | 474 kts | 151° |
| 2026-04-26 19:14 | 41.09594 | 11.48854 | 36149 ft | 473 kts | 151° |
| 2026-04-26 19:15 | 41.04040 | 11.53046 | 36146 ft | 473 kts | 151° |
| 2026-04-26 19:15 | 40.98430 | 11.57273 | 36149 ft | 472 kts | 151° |
| 2026-04-26 19:16 | 40.92802 | 11.61504 | 36154 ft | 473 kts | 151° |
| 2026-04-26 19:16 | 40.87215 | 11.65697 | 36148 ft | 473 kts | 152° |
| 2026-04-26 19:17 | 40.81624 | 11.69885 | 36154 ft | 473 kts | 152° |
| 2026-04-26 19:17 | 40.75941 | 11.74133 | 36149 ft | 473 kts | 152° |
| 2026-04-26 19:18 | 40.70252 | 11.78377 | 36147 ft | 473 kts | 152° |
| 2026-04-26 19:18 | 40.64521 | 11.82643 | 36154 ft | 473 kts | 152° |
| 2026-04-26 19:19 | 40.58814 | 11.86883 | 36150 ft | 471 kts | 152° |
| 2026-04-26 19:19 | 40.53124 | 11.91103 | 36148 ft | 472 kts | 152° |
| 2026-04-26 19:20 | 40.47406 | 11.95334 | 36141 ft | 472 kts | 152° |
| 2026-04-26 19:20 | 40.41688 | 11.99557 | 36248 ft | 473 kts | 152° |
| 2026-04-26 19:21 | 40.36035 | 12.03724 | 36145 ft | 469 kts | 152° |
| 2026-04-26 19:21 | 40.30349 | 12.07908 | 36142 ft | 472 kts | 152° |
| 2026-04-26 19:22 | 40.24700 | 12.12055 | 36144 ft | 476 kts | 152° |
| 2026-04-26 19:22 | 40.18904 | 12.16304 | 36145 ft | 476 kts | 152° |
| 2026-04-26 19:23 | 40.13049 | 12.20588 | 36147 ft | 475 kts | 151° |
| 2026-04-26 19:23 | 40.07367 | 12.24735 | 36147 ft | 475 kts | 152° |
| 2026-04-26 19:24 | 40.01693 | 12.28869 | 36148 ft | 476 kts | 152° |
| 2026-04-26 19:24 | 39.93185 | 12.35053 | 36152 ft | 477 kts | 151° |
| 2026-04-26 19:25 | 39.88451 | 12.38485 | 36152 ft | 477 kts | 151° |
| 2026-04-26 19:25 | 39.81787 | 12.43308 | 36148 ft | 477 kts | 152° |
| 2026-04-26 19:26 | 39.76043 | 12.47456 | 36153 ft | 477 kts | 152° |
| 2026-04-26 19:26 | 39.70300 | 12.51598 | 36149 ft | 477 kts | 152° |
| 2026-04-26 19:27 | 39.64574 | 12.55718 | 36150 ft | 478 kts | 152° |
| 2026-04-26 19:27 | 39.58802 | 12.59863 | 36151 ft | 480 kts | 152° |
| 2026-04-26 19:28 | 39.53041 | 12.63992 | 36153 ft | 480 kts | 152° |
| 2026-04-26 19:28 | 39.47277 | 12.68116 | 36148 ft | 480 kts | 153° |
| 2026-04-26 19:29 | 39.41437 | 12.72285 | 36151 ft | 481 kts | 153° |
| 2026-04-26 19:29 | 39.35712 | 12.76365 | 36153 ft | 482 kts | 153° |
| 2026-04-26 19:30 | 39.29992 | 12.80432 | 36149 ft | 483 kts | 153° |
| 2026-04-26 19:30 | 39.25233 | 12.83812 | 36149 ft | 482 kts | 153° |
| 2026-04-26 19:31 | 39.18677 | 12.88458 | 36145 ft | 482 kts | 153° |
| 2026-04-26 19:31 | 39.12969 | 12.92496 | 36154 ft | 482 kts | 153° |
| 2026-04-26 19:32 | 39.07267 | 12.96522 | 36150 ft | 482 kts | 153° |
| 2026-04-26 19:32 | 39.01431 | 13.00634 | 36146 ft | 482 kts | 153° |
| 2026-04-26 19:33 | 38.95547 | 13.04771 | 36150 ft | 484 kts | 153° |
| 2026-04-26 19:33 | 38.89651 | 13.08910 | 36146 ft | 485 kts | 153° |
| 2026-04-26 19:34 | 38.83839 | 13.12923 | 36146 ft | 485 kts | 155° |
| 2026-04-26 19:34 | 38.77833 | 13.16486 | 36144 ft | 483 kts | 159° |
| 2026-04-26 19:35 | 38.71684 | 13.19870 | 36140 ft | 483 kts | 159° |
| 2026-04-26 19:35 | 38.65515 | 13.23260 | 36189 ft | 485 kts | 159° |
| 2026-04-26 19:36 | 38.62402 | 13.24986 | 35970 ft | 484 kts | 159° |
| 2026-04-26 19:36 | 38.60379 | 13.26114 | 36084 ft | 485 kts | 159° |
| 2026-04-26 19:36 | 38.53119 | 13.30183 | 36137 ft | 487 kts | 159° |
| 2026-04-26 19:37 | 38.46870 | 13.33703 | 36136 ft | 489 kts | 159° |
| 2026-04-26 19:37 | 38.40646 | 13.37211 | 36139 ft | 489 kts | 159° |
| 2026-04-26 19:38 | 38.34391 | 13.40732 | 36142 ft | 489 kts | 159° |
| 2026-04-26 19:38 | 38.28148 | 13.44242 | 36125 ft | 490 kts | 159° |
| 2026-04-26 19:39 | 38.25043 | 13.45984 | 36006 ft | 486 kts | 159° |
| 2026-04-26 19:39 | 38.21955 | 13.47717 | 35649 ft | 481 kts | 159° |
| 2026-04-26 19:39 | 38.18910 | 13.49424 | 35273 ft | 475 kts | 159° |
| 2026-04-26 19:39 | 38.15889 | 13.51115 | 34896 ft | 471 kts | 159° |
| 2026-04-26 19:40 | 38.12900 | 13.52785 | 34521 ft | 472 kts | 159° |
| 2026-04-26 19:40 | 38.09863 | 13.54476 | 34089 ft | 476 kts | 159° |
| 2026-04-26 19:40 | 38.06698 | 13.56236 | 33441 ft | 478 kts | 159° |
| 2026-04-26 19:40 | 38.03642 | 13.57936 | 32810 ft | 477 kts | 159° |
| 2026-04-26 19:41 | 38.00575 | 13.59645 | 32173 ft | 474 kts | 159° |
| 2026-04-26 19:41 | 37.97527 | 13.61343 | 31545 ft | 472 kts | 159° |
| 2026-04-26 19:41 | 37.94447 | 13.63134 | 30899 ft | 471 kts | 156° |
| 2026-04-26 19:41 | 37.92490 | 13.64495 | 30474 ft | 472 kts | 152° |
| 2026-04-26 19:42 | 37.88747 | 13.67851 | 29591 ft | 477 kts | 142° |
| 2026-04-26 19:42 | 37.86375 | 13.70870 | 28950 ft | 480 kts | 132° |
| 2026-04-26 19:42 | 37.84393 | 13.74357 | 28309 ft | 484 kts | 122° |
| 2026-04-26 19:42 | 37.82864 | 13.78179 | 27682 ft | 487 kts | 113° |
| 2026-04-26 19:43 | 37.81691 | 13.82183 | 27141 ft | 485 kts | 109° |
| 2026-04-26 19:43 | 37.80677 | 13.86236 | 26537 ft | 481 kts | 107° |
| 2026-04-26 19:43 | 37.79697 | 13.90262 | 25910 ft | 476 kts | 108° |
| 2026-04-26 19:43 | 37.78693 | 13.94213 | 25293 ft | 471 kts | 109° |
| 2026-04-26 19:44 | 37.77638 | 13.98126 | 24671 ft | 466 kts | 110° |
| 2026-04-26 19:44 | 37.76549 | 14.01932 | 24057 ft | 461 kts | 111° |
| 2026-04-26 19:44 | 37.75420 | 14.05658 | 23445 ft | 456 kts | 112° |
| 2026-04-26 19:44 | 37.74258 | 14.09356 | 22832 ft | 452 kts | 112° |
| 2026-04-26 19:45 | 37.73079 | 14.13031 | 22217 ft | 447 kts | 112° |
| 2026-04-26 19:45 | 37.71914 | 14.16624 | 21610 ft | 442 kts | 113° |
| 2026-04-26 19:45 | 37.70752 | 14.20183 | 21003 ft | 438 kts | 113° |
| 2026-04-26 19:45 | 37.69591 | 14.23731 | 20392 ft | 433 kts | 113° |
| 2026-04-26 19:46 | 37.68449 | 14.27215 | 19766 ft | 424 kts | 113° |
| 2026-04-26 19:46 | 37.67340 | 14.30599 | 19169 ft | 406 kts | 113° |
| 2026-04-26 19:46 | 37.66292 | 14.33799 | 18571 ft | 393 kts | 113° |
| 2026-04-26 19:46 | 37.65251 | 14.36974 | 17977 ft | 388 kts | 113° |
| 2026-04-26 19:47 | 37.64234 | 14.40072 | 17381 ft | 386 kts | 113° |
| 2026-04-26 19:47 | 37.63555 | 14.42143 | 16855 ft | 383 kts | 112° |
| 2026-04-26 19:47 | 37.62506 | 14.46336 | 15771 ft | 373 kts | 101° |
| 2026-04-26 19:47 | 37.62294 | 14.49539 | 15025 ft | 363 kts | 89° |
| 2026-04-26 19:48 | 37.62420 | 14.52695 | 14283 ft | 354 kts | 85° |
| 2026-04-26 19:48 | 37.62649 | 14.55710 | 13556 ft | 347 kts | 84° |
| 2026-04-26 19:48 | 37.62907 | 14.58723 | 12815 ft | 340 kts | 83° |
| 2026-04-26 19:48 | 37.63150 | 14.61644 | 12084 ft | 333 kts | 84° |
| 2026-04-26 19:49 | 37.63371 | 14.64511 | 11366 ft | 327 kts | 84° |
| 2026-04-26 19:49 | 37.63526 | 14.67325 | 10834 ft | 320 kts | 89° |
| 2026-04-26 19:49 | 37.63281 | 14.70037 | 10699 ft | 305 kts | 107° |
| 2026-04-26 19:49 | 37.62309 | 14.72330 | 10417 ft | 296 kts | 132° |
| 2026-04-26 19:50 | 37.60681 | 14.73843 | 10147 ft | 287 kts | 158° |
| 2026-04-26 19:50 | 37.58809 | 14.74427 | 10121 ft | 268 kts | 173° |
| 2026-04-26 19:50 | 37.57004 | 14.74591 | 9936 ft | 253 kts | 182° |
| 2026-04-26 19:50 | 37.55360 | 14.73992 | 9563 ft | 246 kts | 213° |
| 2026-04-26 19:51 | 37.54229 | 14.72454 | 9166 ft | 241 kts | 242° |
| 2026-04-26 19:51 | 37.53658 | 14.70471 | 8696 ft | 240 kts | 259° |
| 2026-04-26 19:51 | 37.53382 | 14.68422 | 8254 ft | 240 kts | 260° |
| 2026-04-26 19:51 | 37.52777 | 14.66464 | 7798 ft | 239 kts | 233° |
| 2026-04-26 19:52 | 37.51492 | 14.65330 | 7340 ft | 225 kts | 197° |
| 2026-04-26 19:52 | 37.49968 | 14.65193 | 6866 ft | 215 kts | 172° |
| 2026-04-26 19:52 | 37.48520 | 14.65441 | 6463 ft | 206 kts | 173° |
| 2026-04-26 19:52 | 37.47115 | 14.65608 | 6072 ft | 200 kts | 174° |
| 2026-04-26 19:53 | 37.45741 | 14.65758 | 5678 ft | 197 kts | 172° |
| 2026-04-26 19:53 | 37.44434 | 14.66204 | 5281 ft | 195 kts | 148° |
| 2026-04-26 19:53 | 37.43589 | 14.67473 | 4940 ft | 190 kts | 108° |
| 2026-04-26 19:53 | 37.43402 | 14.69046 | 4666 ft | 178 kts | 86° |
| 2026-04-26 19:54 | 37.43681 | 14.70543 | 4358 ft | 174 kts | 73° |
| 2026-04-26 19:54 | 37.43900 | 14.72017 | 4112 ft | 171 kts | 84° |
| 2026-04-26 19:54 | 37.43979 | 14.73453 | 3850 ft | 158 kts | 85° |
| 2026-04-26 19:54 | 37.44055 | 14.74796 | 3599 ft | 154 kts | 84° |
| 2026-04-26 19:55 | 37.44145 | 14.76133 | 3356 ft | 153 kts | 83° |
| 2026-04-26 19:55 | 37.44237 | 14.77474 | 3108 ft | 153 kts | 84° |
| 2026-04-26 19:55 | 37.44328 | 14.78792 | 2982 ft | 146 kts | 83° |
| 2026-04-26 19:55 | 37.44455 | 14.80049 | 2994 ft | 146 kts | 79° |
| 2026-04-26 19:56 | 37.44598 | 14.81319 | 2993 ft | 147 kts | 82° |
| 2026-04-26 19:56 | 37.44696 | 14.82602 | 2994 ft | 147 kts | 83° |
| 2026-04-26 19:56 | 37.44784 | 14.83880 | 2993 ft | 146 kts | 83° |
| 2026-04-26 19:56 | 37.44873 | 14.85158 | 2992 ft | 146 kts | 83° |
| 2026-04-26 19:57 | 37.45107 | 14.86379 | 2994 ft | 144 kts | 69° |
| 2026-04-26 19:57 | 37.45372 | 14.87610 | 2967 ft | 147 kts | 80° |
| 2026-04-26 19:57 | 37.45484 | 14.88902 | 2781 ft | 147 kts | 83° |
| 2026-04-26 19:57 | 37.45566 | 14.90169 | 2584 ft | 147 kts | 83° |
| 2026-04-26 19:58 | 37.45617 | 14.91466 | 2380 ft | 148 kts | 87° |
| 2026-04-26 19:58 | 37.45632 | 14.92762 | 2180 ft | 148 kts | 88° |
| 2026-04-26 19:58 | 37.45662 | 14.94056 | 1992 ft | 147 kts | 85° |
| 2026-04-26 19:58 | 37.45736 | 14.95328 | 1827 ft | 147 kts | 84° |
| 2026-04-26 19:59 | 37.45840 | 14.96604 | 1677 ft | 146 kts | 82° |
| 2026-04-26 19:59 | 37.45958 | 14.97874 | 1541 ft | 146 kts | 83° |
| 2026-04-26 19:59 | 37.46053 | 14.99155 | 1338 ft | 146 kts | 83° |
| 2026-04-26 19:59 | 37.46154 | 15.00425 | 1105 ft | 145 kts | 83° |
| 2026-04-26 20:00 | 37.46258 | 15.01674 | 862 ft | 145 kts | 84° |
| 2026-04-26 20:00 | 37.46363 | 15.02932 | 613 ft | 144 kts | 83° |
| 2026-04-26 20:00 | 37.46469 | 15.04191 | 364 ft | 144 kts | 83° |
| 2026-04-26 20:00 | 37.46581 | 15.05439 | 113 ft | 144 kts | 84° |
| 2026-04-26 20:01 | 37.46688 | 15.06684 | 33 ft | 141 kts | 83° |
| 2026-04-26 20:01 | 37.46776 | 15.07755 | 33 ft | 100 kts | 85° |
| 2026-04-26 20:01 | 37.46944 | 15.08075 | 33 ft | 28 kts | 313° |
| 2026-04-26 20:01 | 37.46948 | 15.07894 | 33 ft | 17 kts | 257° |
| 2026-04-26 20:02 | 37.46939 | 15.07775 | 33 ft | 9 kts | 266° |
| 2026-04-26 20:02 | 37.46935 | 15.07726 | 33 ft | 1 kts | 264° |
| 2026-04-26 20:02 | 37.46935 | 15.07723 | 33 ft | 1 kts | 264° |
| 2026-04-26 20:02 | 37.46932 | 15.07692 | 33 ft | 8 kts | 264° |
| 2026-04-26 20:03 | 37.46916 | 15.07516 | 32 ft | 21 kts | 263° |
| 2026-04-26 20:03 | 37.46899 | 15.07323 | 32 ft | 22 kts | 264° |
| 2026-04-26 20:03 | 37.46884 | 15.07130 | 31 ft | 21 kts | 264° |
| 2026-04-26 20:03 | 37.46870 | 15.06946 | 31 ft | 20 kts | 264° |
| 2026-04-26 20:04 | 37.46855 | 15.06771 | 31 ft | 19 kts | 265° |
| 2026-04-26 20:04 | 37.46844 | 15.06626 | 33 ft | 9 kts | 268° |
| 2026-04-26 20:04 | 37.46858 | 15.06609 | 33 ft | 3 kts | 355° |
| 2026-04-26 20:04 | 37.46877 | 15.06609 | 33 ft | 3 kts | 4° |
| 2026-04-26 20:05 | 37.46911 | 15.06621 | 34 ft | 5 kts | 19° |